sensor_id;sensor_type;location;lat;lon;timestamp;P1;durP1;ratioP1;P2;durP2;ratioP2
72404;SDS011;60395;52.020;113.548;2024-02-21T00:02:28;2.78;;;1.70;;
72404;SDS011;60395;52.020;113.548;2024-02-21T00:05:31;7.40;;;2.40;;
72404;SDS011;60395;52.020;113.548;2024-02-21T00:11:38;2.33;;;1.97;;
72404;SDS011;60395;52.020;113.548;2024-02-21T00:14:41;1.55;;;1.33;;
72404;SDS011;60395;52.020;113.548;2024-02-21T00:17:45;0.95;;;0.60;;
72404;SDS011;60395;52.020;113.548;2024-02-21T00:20:48;2.28;;;1.38;;
72404;SDS011;60395;52.020;113.548;2024-02-21T00:23:52;2.13;;;1.42;;
72404;SDS011;60395;52.020;113.548;2024-02-21T00:26:55;5.82;;;3.00;;
72404;SDS011;60395;52.020;113.548;2024-02-21T00:29:58;5.10;;;3.45;;
72404;SDS011;60395;52.020;113.548;2024-02-21T00:33:02;7.88;;;1.65;;
72404;SDS011;60395;52.020;113.548;2024-02-21T00:36:05;1.80;;;1.70;;
72404;SDS011;60395;52.020;113.548;2024-02-21T00:42:12;3.93;;;1.97;;
72404;SDS011;60395;52.020;113.548;2024-02-21T00:45:15;2.00;;;1.85;;
72404;SDS011;60395;52.020;113.548;2024-02-21T00:48:18;2.33;;;1.27;;
72404;SDS011;60395;52.020;113.548;2024-02-21T00:51:22;1.37;;;1.10;;
72404;SDS011;60395;52.020;113.548;2024-02-21T00:54:26;1.23;;;0.63;;
72404;SDS011;60395;52.020;113.548;2024-02-21T00:57:40;2.23;;;1.30;;
72404;SDS011;60395;52.020;113.548;2024-02-21T01:00:44;2.90;;;1.45;;
72404;SDS011;60395;52.020;113.548;2024-02-21T01:03:47;1.95;;;1.02;;
72404;SDS011;60395;52.020;113.548;2024-02-21T01:06:50;9.18;;;1.80;;
72404;SDS011;60395;52.020;113.548;2024-02-21T01:09:54;1.10;;;1.00;;
72404;SDS011;60395;52.020;113.548;2024-02-21T01:12:57;6.80;;;1.75;;
72404;SDS011;60395;52.020;113.548;2024-02-21T01:16:01;7.40;;;1.60;;
72404;SDS011;60395;52.020;113.548;2024-02-21T01:19:04;2.60;;;1.55;;
72404;SDS011;60395;52.020;113.548;2024-02-21T01:22:07;3.03;;;1.23;;
72404;SDS011;60395;52.020;113.548;2024-02-21T01:25:11;1.10;;;1.00;;
72404;SDS011;60395;52.020;113.548;2024-02-21T01:28:15;3.67;;;1.20;;
72404;SDS011;60395;52.020;113.548;2024-02-21T01:31:18;4.15;;;1.63;;
72404;SDS011;60395;52.020;113.548;2024-02-21T01:34:21;2.50;;;1.48;;
72404;SDS011;60395;52.020;113.548;2024-02-21T01:37:25;1.00;;;0.80;;
72404;SDS011;60395;52.020;113.548;2024-02-21T01:40:29;3.83;;;1.70;;
72404;SDS011;60395;52.020;113.548;2024-02-21T01:43:32;1.23;;;1.13;;
72404;SDS011;60395;52.020;113.548;2024-02-21T01:46:35;1.33;;;0.82;;
72404;SDS011;60395;52.020;113.548;2024-02-21T01:52:46;0.53;;;0.50;;
72404;SDS011;60395;52.020;113.548;2024-02-21T01:55:53;1.03;;;0.63;;
72404;SDS011;60395;52.020;113.548;2024-02-21T01:58:56;0.45;;;0.35;;
72404;SDS011;60395;52.020;113.548;2024-02-21T02:02:00;0.70;;;0.70;;
72404;SDS011;60395;52.020;113.548;2024-02-21T02:05:04;0.50;;;0.50;;
72404;SDS011;60395;52.020;113.548;2024-02-21T02:08:09;0.40;;;0.40;;
72404;SDS011;60395;52.020;113.548;2024-02-21T02:11:15;0.43;;;0.40;;
72404;SDS011;60395;52.020;113.548;2024-02-21T02:14:19;0.20;;;0.20;;
72404;SDS011;60395;52.020;113.548;2024-02-21T02:17:23;5.45;;;1.33;;
72404;SDS011;60395;52.020;113.548;2024-02-21T02:20:26;3.55;;;0.85;;
72404;SDS011;60395;52.020;113.548;2024-02-21T02:23:30;1.55;;;1.08;;
72404;SDS011;60395;52.020;113.548;2024-02-21T02:26:34;0.73;;;0.60;;
72404;SDS011;60395;52.020;113.548;2024-02-21T02:29:38;1.00;;;0.43;;
72404;SDS011;60395;52.020;113.548;2024-02-21T02:32:45;2.70;;;2.08;;
72404;SDS011;60395;52.020;113.548;2024-02-21T02:35:49;5.07;;;0.68;;
72404;SDS011;60395;52.020;113.548;2024-02-21T02:38:53;2.47;;;1.20;;
72404;SDS011;60395;52.020;113.548;2024-02-21T02:45:00;1.17;;;0.30;;
72404;SDS011;60395;52.020;113.548;2024-02-21T02:48:03;1.95;;;1.50;;
72404;SDS011;60395;52.020;113.548;2024-02-21T02:54:11;1.77;;;1.45;;
72404;SDS011;60395;52.020;113.548;2024-02-21T02:57:15;0.73;;;0.28;;
72404;SDS011;60395;52.020;113.548;2024-02-21T03:00:18;1.45;;;1.10;;
72404;SDS011;60395;52.020;113.548;2024-02-21T03:03:22;1.85;;;0.63;;
72404;SDS011;60395;52.020;113.548;2024-02-21T03:06:26;0.20;;;0.20;;
72404;SDS011;60395;52.020;113.548;2024-02-21T03:09:29;2.13;;;0.57;;
72404;SDS011;60395;52.020;113.548;2024-02-21T03:12:33;0.40;;;0.32;;
72404;SDS011;60395;52.020;113.548;2024-02-21T03:15:36;4.78;;;1.77;;
72404;SDS011;60395;52.020;113.548;2024-02-21T03:18:40;0.73;;;0.63;;
72404;SDS011;60395;52.020;113.548;2024-02-21T03:21:45;1.48;;;0.73;;
72404;SDS011;60395;52.020;113.548;2024-02-21T03:24:49;1.20;;;0.88;;
72404;SDS011;60395;52.020;113.548;2024-02-21T03:27:52;6.15;;;2.67;;
72404;SDS011;60395;52.020;113.548;2024-02-21T03:30:55;1.65;;;0.47;;
72404;SDS011;60395;52.020;113.548;2024-02-21T03:33:59;1.08;;;1.05;;
72404;SDS011;60395;52.020;113.548;2024-02-21T03:37:02;2.78;;;1.00;;
72404;SDS011;60395;52.020;113.548;2024-02-21T03:40:08;0.77;;;0.40;;
72404;SDS011;60395;52.020;113.548;2024-02-21T03:43:12;3.28;;;0.68;;
72404;SDS011;60395;52.020;113.548;2024-02-21T03:46:16;0.68;;;0.47;;
72404;SDS011;60395;52.020;113.548;2024-02-21T03:49:19;3.63;;;1.00;;
72404;SDS011;60395;52.020;113.548;2024-02-21T03:52:23;0.77;;;0.60;;
72404;SDS011;60395;52.020;113.548;2024-02-21T03:55:26;0.77;;;0.55;;
72404;SDS011;60395;52.020;113.548;2024-02-21T03:58:30;1.67;;;0.77;;
72404;SDS011;60395;52.020;113.548;2024-02-21T04:01:36;0.30;;;0.30;;
72404;SDS011;60395;52.020;113.548;2024-02-21T04:04:42;1.70;;;1.52;;
72404;SDS011;60395;52.020;113.548;2024-02-21T04:07:49;2.90;;;0.77;;
72404;SDS011;60395;52.020;113.548;2024-02-21T04:10:54;5.82;;;0.68;;
72404;SDS011;60395;52.020;113.548;2024-02-21T04:13:57;4.53;;;1.55;;
72404;SDS011;60395;52.020;113.548;2024-02-21T04:17:01;0.77;;;0.60;;
72404;SDS011;60395;52.020;113.548;2024-02-21T04:20:05;0.75;;;0.60;;
72404;SDS011;60395;52.020;113.548;2024-02-21T04:23:11;0.52;;;0.40;;
72404;SDS011;60395;52.020;113.548;2024-02-21T04:26:14;2.92;;;2.00;;
72404;SDS011;60395;52.020;113.548;2024-02-21T04:29:17;1.55;;;0.95;;
72404;SDS011;60395;52.020;113.548;2024-02-21T04:32:21;2.63;;;0.70;;
72404;SDS011;60395;52.020;113.548;2024-02-21T04:35:24;1.03;;;0.73;;
72404;SDS011;60395;52.020;113.548;2024-02-21T04:38:27;0.82;;;0.70;;
72404;SDS011;60395;52.020;113.548;2024-02-21T04:41:31;1.42;;;1.02;;
72404;SDS011;60395;52.020;113.548;2024-02-21T04:44:35;1.73;;;0.95;;
72404;SDS011;60395;52.020;113.548;2024-02-21T04:47:38;1.17;;;0.70;;
72404;SDS011;60395;52.020;113.548;2024-02-21T04:50:42;5.90;;;1.57;;
72404;SDS011;60395;52.020;113.548;2024-02-21T04:53:45;1.47;;;0.70;;
72404;SDS011;60395;52.020;113.548;2024-02-21T04:56:48;4.57;;;1.10;;
72404;SDS011;60395;52.020;113.548;2024-02-21T04:59:54;8.90;;;0.98;;
72404;SDS011;60395;52.020;113.548;2024-02-21T05:02:58;1.90;;;1.30;;
72404;SDS011;60395;52.020;113.548;2024-02-21T05:06:01;2.60;;;1.27;;
72404;SDS011;60395;52.020;113.548;2024-02-21T05:09:05;2.00;;;1.02;;
72404;SDS011;60395;52.020;113.548;2024-02-21T05:15:12;16.25;;;1.52;;
72404;SDS011;60395;52.020;113.548;2024-02-21T05:18:15;7.67;;;1.20;;
72404;SDS011;60395;52.020;113.548;2024-02-21T05:21:19;2.70;;;0.77;;
72404;SDS011;60395;52.020;113.548;2024-02-21T05:24:22;3.05;;;1.15;;
72404;SDS011;60395;52.020;113.548;2024-02-21T05:27:26;2.50;;;1.17;;
72404;SDS011;60395;52.020;113.548;2024-02-21T05:30:29;0.87;;;0.73;;
72404;SDS011;60395;52.020;113.548;2024-02-21T05:33:33;1.43;;;1.13;;
72404;SDS011;60395;52.020;113.548;2024-02-21T05:36:36;2.87;;;0.60;;
72404;SDS011;60395;52.020;113.548;2024-02-21T05:39:40;0.85;;;0.60;;
72404;SDS011;60395;52.020;113.548;2024-02-21T05:42:43;4.40;;;1.40;;
72404;SDS011;60395;52.020;113.548;2024-02-21T05:45:47;1.23;;;0.70;;
72404;SDS011;60395;52.020;113.548;2024-02-21T05:48:51;32.13;;;1.48;;
72404;SDS011;60395;52.020;113.548;2024-02-21T05:51:55;4.30;;;1.58;;
72404;SDS011;60395;52.020;113.548;2024-02-21T05:54:58;1.23;;;0.70;;
72404;SDS011;60395;52.020;113.548;2024-02-21T05:58:02;2.33;;;1.10;;
72404;SDS011;60395;52.020;113.548;2024-02-21T06:01:07;1.00;;;0.63;;
72404;SDS011;60395;52.020;113.548;2024-02-21T06:04:11;8.05;;;1.35;;
72404;SDS011;60395;52.020;113.548;2024-02-21T06:07:15;3.58;;;1.30;;
72404;SDS011;60395;52.020;113.548;2024-02-21T06:10:19;2.92;;;0.90;;
72404;SDS011;60395;52.020;113.548;2024-02-21T06:13:26;5.77;;;1.33;;
72404;SDS011;60395;52.020;113.548;2024-02-21T06:16:30;2.22;;;0.95;;
72404;SDS011;60395;52.020;113.548;2024-02-21T06:19:33;2.33;;;1.00;;
72404;SDS011;60395;52.020;113.548;2024-02-21T06:22:37;2.97;;;0.93;;
72404;SDS011;60395;52.020;113.548;2024-02-21T06:25:40;1.90;;;0.90;;
72404;SDS011;60395;52.020;113.548;2024-02-21T06:28:44;1.35;;;0.88;;
72404;SDS011;60395;52.020;113.548;2024-02-21T06:31:49;2.35;;;0.93;;
72404;SDS011;60395;52.020;113.548;2024-02-21T06:34:52;2.47;;;1.10;;
72404;SDS011;60395;52.020;113.548;2024-02-21T06:37:56;4.70;;;1.57;;
72404;SDS011;60395;52.020;113.548;2024-02-21T06:40:59;5.23;;;3.00;;
72404;SDS011;60395;52.020;113.548;2024-02-21T06:44:05;8.73;;;2.22;;
72404;SDS011;60395;52.020;113.548;2024-02-21T06:47:08;5.40;;;1.90;;
72404;SDS011;60395;52.020;113.548;2024-02-21T06:50:12;14.10;;;1.50;;
72404;SDS011;60395;52.020;113.548;2024-02-21T06:53:15;6.13;;;2.70;;
72404;SDS011;60395;52.020;113.548;2024-02-21T06:56:19;3.70;;;1.90;;
72404;SDS011;60395;52.020;113.548;2024-02-21T06:59:23;6.75;;;2.38;;
72404;SDS011;60395;52.020;113.548;2024-02-21T07:02:26;32.50;;;2.35;;
72404;SDS011;60395;52.020;113.548;2024-02-21T07:05:30;3.40;;;1.73;;
72404;SDS011;60395;52.020;113.548;2024-02-21T07:08:33;2.50;;;1.30;;
72404;SDS011;60395;52.020;113.548;2024-02-21T07:11:36;4.40;;;1.40;;
72404;SDS011;60395;52.020;113.548;2024-02-21T07:14:40;3.75;;;1.70;;
72404;SDS011;60395;52.020;113.548;2024-02-21T07:17:43;2.92;;;1.42;;
72404;SDS011;60395;52.020;113.548;2024-02-21T07:20:47;5.33;;;1.43;;
72404;SDS011;60395;52.020;113.548;2024-02-21T07:23:50;3.78;;;1.75;;
72404;SDS011;60395;52.020;113.548;2024-02-21T07:26:53;3.60;;;1.23;;
72404;SDS011;60395;52.020;113.548;2024-02-21T07:29:58;3.15;;;1.48;;
72404;SDS011;60395;52.020;113.548;2024-02-21T07:33:02;2.92;;;1.08;;
72404;SDS011;60395;52.020;113.548;2024-02-21T07:36:10;3.53;;;1.00;;
72404;SDS011;60395;52.020;113.548;2024-02-21T07:39:14;1.90;;;1.13;;
72404;SDS011;60395;52.020;113.548;2024-02-21T07:42:18;4.43;;;1.60;;
72404;SDS011;60395;52.020;113.548;2024-02-21T07:45:21;7.07;;;1.65;;
72404;SDS011;60395;52.020;113.548;2024-02-21T07:48:26;5.20;;;1.77;;
72404;SDS011;60395;52.020;113.548;2024-02-21T07:51:31;3.20;;;1.25;;
72404;SDS011;60395;52.020;113.548;2024-02-21T07:54:35;8.47;;;2.00;;
72404;SDS011;60395;52.020;113.548;2024-02-21T07:57:38;2.95;;;0.90;;
72404;SDS011;60395;52.020;113.548;2024-02-21T08:00:44;2.97;;;1.25;;
72404;SDS011;60395;52.020;113.548;2024-02-21T08:03:47;11.82;;;2.33;;
72404;SDS011;60395;52.020;113.548;2024-02-21T08:06:52;5.13;;;1.75;;
72404;SDS011;60395;52.020;113.548;2024-02-21T08:09:56;2.47;;;1.23;;
72404;SDS011;60395;52.020;113.548;2024-02-21T08:13:00;6.45;;;2.05;;
72404;SDS011;60395;52.020;113.548;2024-02-21T08:16:03;6.65;;;2.33;;
72404;SDS011;60395;52.020;113.548;2024-02-21T08:19:07;7.68;;;2.08;;
72404;SDS011;60395;52.020;113.548;2024-02-21T08:22:10;24.07;;;2.50;;
72404;SDS011;60395;52.020;113.548;2024-02-21T08:25:14;5.07;;;2.35;;
72404;SDS011;60395;52.020;113.548;2024-02-21T08:28:17;9.63;;;3.47;;
72404;SDS011;60395;52.020;113.548;2024-02-21T08:31:20;4.80;;;1.75;;
72404;SDS011;60395;52.020;113.548;2024-02-21T08:34:25;7.35;;;2.30;;
72404;SDS011;60395;52.020;113.548;2024-02-21T08:37:29;3.37;;;2.13;;
72404;SDS011;60395;52.020;113.548;2024-02-21T08:40:32;7.80;;;2.63;;
72404;SDS011;60395;52.020;113.548;2024-02-21T08:43:37;3.53;;;1.80;;
72404;SDS011;60395;52.020;113.548;2024-02-21T08:46:41;8.47;;;2.47;;
72404;SDS011;60395;52.020;113.548;2024-02-21T08:49:45;6.18;;;2.58;;
72404;SDS011;60395;52.020;113.548;2024-02-21T08:52:48;3.97;;;2.10;;
72404;SDS011;60395;52.020;113.548;2024-02-21T08:55:52;5.00;;;2.53;;
72404;SDS011;60395;52.020;113.548;2024-02-21T08:58:55;4.40;;;2.83;;
72404;SDS011;60395;52.020;113.548;2024-02-21T09:02:00;17.65;;;5.25;;
72404;SDS011;60395;52.020;113.548;2024-02-21T09:05:05;2.80;;;1.40;;
72404;SDS011;60395;52.020;113.548;2024-02-21T09:08:09;5.13;;;1.90;;
72404;SDS011;60395;52.020;113.548;2024-02-21T09:11:12;3.38;;;1.17;;
72404;SDS011;60395;52.020;113.548;2024-02-21T09:14:16;4.13;;;1.23;;
72404;SDS011;60395;52.020;113.548;2024-02-21T09:17:19;26.40;;;2.58;;
72404;SDS011;60395;52.020;113.548;2024-02-21T09:20:27;14.40;;;3.63;;
72404;SDS011;60395;52.020;113.548;2024-02-21T09:23:31;11.27;;;3.10;;
72404;SDS011;60395;52.020;113.548;2024-02-21T09:26:35;11.07;;;3.83;;
72404;SDS011;60395;52.020;113.548;2024-02-21T09:29:38;8.45;;;2.33;;
72404;SDS011;60395;52.020;113.548;2024-02-21T09:32:42;5.35;;;1.95;;
72404;SDS011;60395;52.020;113.548;2024-02-21T09:35:46;8.37;;;3.07;;
72404;SDS011;60395;52.020;113.548;2024-02-21T09:38:51;16.50;;;3.78;;
72404;SDS011;60395;52.020;113.548;2024-02-21T09:41:58;10.85;;;4.78;;
72404;SDS011;60395;52.020;113.548;2024-02-21T09:51:43;8.63;;;3.17;;
72404;SDS011;60395;52.020;113.548;2024-02-21T09:54:47;8.63;;;4.78;;
72404;SDS011;60395;52.020;113.548;2024-02-21T09:57:51;21.25;;;4.70;;
72404;SDS011;60395;52.020;113.548;2024-02-21T10:00:56;9.27;;;4.18;;
72404;SDS011;60395;52.020;113.548;2024-02-21T10:04:01;14.40;;;5.65;;
72404;SDS011;60395;52.020;113.548;2024-02-21T10:07:05;10.55;;;4.05;;
72404;SDS011;60395;52.020;113.548;2024-02-21T10:13:25;10.93;;;5.25;;
72404;SDS011;60395;52.020;113.548;2024-02-21T10:16:30;6.30;;;3.05;;
72404;SDS011;60395;52.020;113.548;2024-02-21T10:19:34;11.75;;;5.50;;
72404;SDS011;60395;52.020;113.548;2024-02-21T10:22:38;14.75;;;4.45;;
72404;SDS011;60395;52.020;113.548;2024-02-21T10:25:42;16.85;;;6.45;;
72404;SDS011;60395;52.020;113.548;2024-02-21T10:28:48;18.23;;;4.53;;
72404;SDS011;60395;52.020;113.548;2024-02-21T10:32:10;11.05;;;5.35;;
72404;SDS011;60395;52.020;113.548;2024-02-21T10:35:15;19.30;;;5.85;;
72404;SDS011;60395;52.020;113.548;2024-02-21T10:38:29;12.50;;;5.40;;
72404;SDS011;60395;52.020;113.548;2024-02-21T10:41:33;14.07;;;5.63;;
72404;SDS011;60395;52.020;113.548;2024-02-21T10:44:37;21.30;;;8.80;;
72404;SDS011;60395;52.020;113.548;2024-02-21T10:47:45;25.17;;;4.13;;
72404;SDS011;60395;52.020;113.548;2024-02-21T10:50:56;12.70;;;5.90;;
72404;SDS011;60395;52.020;113.548;2024-02-21T10:57:26;7.50;;;3.78;;
72404;SDS011;60395;52.020;113.548;2024-02-21T11:00:30;12.50;;;6.80;;
72404;SDS011;60395;52.020;113.548;2024-02-21T11:03:35;19.02;;;6.28;;
72404;SDS011;60395;52.020;113.548;2024-02-21T11:06:40;15.20;;;5.95;;
72404;SDS011;60395;52.020;113.548;2024-02-21T11:09:52;25.48;;;7.95;;
72404;SDS011;60395;52.020;113.548;2024-02-21T11:13:07;40.17;;;10.60;;
72404;SDS011;60395;52.020;113.548;2024-02-21T11:16:12;15.18;;;6.05;;
72404;SDS011;60395;52.020;113.548;2024-02-21T11:19:25;11.10;;;5.75;;
72404;SDS011;60395;52.020;113.548;2024-02-21T11:22:30;19.20;;;7.38;;
72404;SDS011;60395;52.020;113.548;2024-02-21T11:25:43;10.75;;;5.45;;
72404;SDS011;60395;52.020;113.548;2024-02-21T11:29:00;27.42;;;7.57;;
72404;SDS011;60395;52.020;113.548;2024-02-21T11:32:08;12.55;;;3.78;;
72404;SDS011;60395;52.020;113.548;2024-02-21T11:35:20;10.65;;;5.00;;
72404;SDS011;60395;52.020;113.548;2024-02-21T11:42:58;6.47;;;3.90;;
72404;SDS011;60395;52.020;113.548;2024-02-21T11:46:02;6.45;;;3.25;;
72404;SDS011;60395;52.020;113.548;2024-02-21T11:49:07;9.73;;;4.32;;
72404;SDS011;60395;52.020;113.548;2024-02-21T11:52:10;10.68;;;4.78;;
72404;SDS011;60395;52.020;113.548;2024-02-21T11:55:14;6.38;;;2.70;;
72404;SDS011;60395;52.020;113.548;2024-02-21T11:58:17;15.75;;;5.13;;
72404;SDS011;60395;52.020;113.548;2024-02-21T12:01:21;8.95;;;3.97;;
72404;SDS011;60395;52.020;113.548;2024-02-21T12:04:24;18.13;;;5.95;;
72404;SDS011;60395;52.020;113.548;2024-02-21T12:07:29;14.10;;;6.47;;
72404;SDS011;60395;52.020;113.548;2024-02-21T12:10:34;18.35;;;4.35;;
72404;SDS011;60395;52.020;113.548;2024-02-21T12:13:39;15.70;;;5.93;;
72404;SDS011;60395;52.020;113.548;2024-02-21T12:16:42;12.98;;;5.32;;
72404;SDS011;60395;52.020;113.548;2024-02-21T12:19:50;10.75;;;5.28;;
72404;SDS011;60395;52.020;113.548;2024-02-21T12:22:54;14.80;;;4.50;;
72404;SDS011;60395;52.020;113.548;2024-02-21T12:25:59;9.88;;;4.82;;
72404;SDS011;60395;52.020;113.548;2024-02-21T12:29:02;8.60;;;3.50;;
72404;SDS011;60395;52.020;113.548;2024-02-21T12:32:06;6.90;;;3.28;;
72404;SDS011;60395;52.020;113.548;2024-02-21T12:35:10;9.68;;;5.15;;
72404;SDS011;60395;52.020;113.548;2024-02-21T12:38:13;13.70;;;5.32;;
72404;SDS011;60395;52.020;113.548;2024-02-21T12:41:17;10.10;;;4.00;;
72404;SDS011;60395;52.020;113.548;2024-02-21T12:44:20;10.63;;;5.18;;
72404;SDS011;60395;52.020;113.548;2024-02-21T12:47:24;4.22;;;2.63;;
72404;SDS011;60395;52.020;113.548;2024-02-21T12:50:29;3.88;;;2.40;;
72404;SDS011;60395;52.020;113.548;2024-02-21T12:53:34;11.70;;;4.55;;
72404;SDS011;60395;52.020;113.548;2024-02-21T12:56:37;7.65;;;4.28;;
72404;SDS011;60395;52.020;113.548;2024-02-21T13:00:07;7.85;;;4.63;;
72404;SDS011;60395;52.020;113.548;2024-02-21T13:03:12;5.00;;;3.03;;
72404;SDS011;60395;52.020;113.548;2024-02-21T13:06:16;9.35;;;4.40;;
72404;SDS011;60395;52.020;113.548;2024-02-21T13:09:22;15.35;;;5.60;;
72404;SDS011;60395;52.020;113.548;2024-02-21T13:12:26;7.30;;;4.07;;
72404;SDS011;60395;52.020;113.548;2024-02-21T13:15:30;15.20;;;6.20;;
72404;SDS011;60395;52.020;113.548;2024-02-21T13:18:35;4.82;;;3.55;;
72404;SDS011;60395;52.020;113.548;2024-02-21T13:21:41;13.75;;;5.25;;
72404;SDS011;60395;52.020;113.548;2024-02-21T13:24:45;11.27;;;5.88;;
72404;SDS011;60395;52.020;113.548;2024-02-21T13:27:48;21.75;;;6.28;;
72404;SDS011;60395;52.020;113.548;2024-02-21T13:30:52;10.65;;;3.70;;
72404;SDS011;60395;52.020;113.548;2024-02-21T13:33:56;13.10;;;3.92;;
72404;SDS011;60395;52.020;113.548;2024-02-21T13:40:04;7.82;;;1.88;;
72404;SDS011;60395;52.020;113.548;2024-02-21T13:43:09;4.68;;;2.13;;
72404;SDS011;60395;52.020;113.548;2024-02-21T13:46:12;10.60;;;3.60;;
72404;SDS011;60395;52.020;113.548;2024-02-21T13:49:16;4.25;;;2.78;;
72404;SDS011;60395;52.020;113.548;2024-02-21T13:52:20;1.48;;;1.08;;
72404;SDS011;60395;52.020;113.548;2024-02-21T13:55:24;7.40;;;3.22;;
72404;SDS011;60395;52.020;113.548;2024-02-21T13:58:30;2.08;;;1.30;;
72404;SDS011;60395;52.020;113.548;2024-02-21T14:01:34;1.38;;;1.02;;
72404;SDS011;60395;52.020;113.548;2024-02-21T14:04:39;11.00;;;1.95;;
72404;SDS011;60395;52.020;113.548;2024-02-21T14:07:42;5.15;;;2.65;;
72404;SDS011;60395;52.020;113.548;2024-02-21T14:10:46;3.15;;;2.03;;
72404;SDS011;60395;52.020;113.548;2024-02-21T14:13:50;6.50;;;3.17;;
72404;SDS011;60395;52.020;113.548;2024-02-21T14:16:54;4.28;;;1.88;;
72404;SDS011;60395;52.020;113.548;2024-02-21T14:19:58;10.25;;;4.07;;
72404;SDS011;60395;52.020;113.548;2024-02-21T14:23:02;7.80;;;3.70;;
72404;SDS011;60395;52.020;113.548;2024-02-21T14:26:10;2.78;;;1.95;;
72404;SDS011;60395;52.020;113.548;2024-02-21T14:29:14;10.85;;;5.45;;
72404;SDS011;60395;52.020;113.548;2024-02-21T14:32:18;8.98;;;3.72;;
72404;SDS011;60395;52.020;113.548;2024-02-21T14:35:22;13.73;;;6.38;;
72404;SDS011;60395;52.020;113.548;2024-02-21T14:38:26;14.48;;;7.32;;
72404;SDS011;60395;52.020;113.548;2024-02-21T14:41:30;10.95;;;5.05;;
72404;SDS011;60395;52.020;113.548;2024-02-21T14:44:33;7.45;;;4.57;;
72404;SDS011;60395;52.020;113.548;2024-02-21T14:47:37;11.88;;;4.85;;
72404;SDS011;60395;52.020;113.548;2024-02-21T14:50:41;7.57;;;3.33;;
72404;SDS011;60395;52.020;113.548;2024-02-21T14:53:47;2.25;;;1.60;;
72404;SDS011;60395;52.020;113.548;2024-02-21T14:56:51;3.10;;;1.95;;
72404;SDS011;60395;52.020;113.548;2024-02-21T14:59:54;7.63;;;2.53;;
72404;SDS011;60395;52.020;113.548;2024-02-21T15:03:02;6.60;;;2.50;;
72404;SDS011;60395;52.020;113.548;2024-02-21T15:06:06;6.22;;;2.63;;
72404;SDS011;60395;52.020;113.548;2024-02-21T15:09:10;5.78;;;2.97;;
72404;SDS011;60395;52.020;113.548;2024-02-21T15:12:16;5.28;;;3.42;;
72404;SDS011;60395;52.020;113.548;2024-02-21T15:15:19;4.60;;;1.83;;
72404;SDS011;60395;52.020;113.548;2024-02-21T15:18:23;7.72;;;2.38;;
72404;SDS011;60395;52.020;113.548;2024-02-21T15:21:27;1.80;;;1.25;;
72404;SDS011;60395;52.020;113.548;2024-02-21T15:24:30;4.85;;;2.67;;
72404;SDS011;60395;52.020;113.548;2024-02-21T15:27:34;3.53;;;2.58;;
72404;SDS011;60395;52.020;113.548;2024-02-21T15:30:41;4.63;;;1.27;;
72404;SDS011;60395;52.020;113.548;2024-02-21T15:33:44;1.65;;;1.13;;
72404;SDS011;60395;52.020;113.548;2024-02-21T15:36:48;3.95;;;1.38;;
72404;SDS011;60395;52.020;113.548;2024-02-21T15:39:52;6.88;;;2.47;;
72404;SDS011;60395;52.020;113.548;2024-02-21T15:42:55;7.25;;;3.28;;
72404;SDS011;60395;52.020;113.548;2024-02-21T15:45:58;4.60;;;1.88;;
72404;SDS011;60395;52.020;113.548;2024-02-21T15:49:02;5.15;;;2.10;;
72404;SDS011;60395;52.020;113.548;2024-02-21T15:52:06;3.85;;;1.73;;
72404;SDS011;60395;52.020;113.548;2024-02-21T15:55:09;6.43;;;3.33;;
72404;SDS011;60395;52.020;113.548;2024-02-21T15:58:14;9.18;;;2.97;;
72404;SDS011;60395;52.020;113.548;2024-02-21T16:01:18;3.83;;;2.20;;
72404;SDS011;60395;52.020;113.548;2024-02-21T16:04:21;4.82;;;2.63;;
72404;SDS011;60395;52.020;113.548;2024-02-21T16:10:29;3.70;;;1.63;;
72404;SDS011;60395;52.020;113.548;2024-02-21T16:13:34;3.97;;;2.58;;
72404;SDS011;60395;52.020;113.548;2024-02-21T16:16:38;5.13;;;2.95;;
72404;SDS011;60395;52.020;113.548;2024-02-21T16:33:44;7.65;;;2.95;;
72404;SDS011;60395;52.020;113.548;2024-02-21T16:36:48;4.00;;;1.15;;
72404;SDS011;60395;52.020;113.548;2024-02-21T16:39:51;1.67;;;1.20;;
72404;SDS011;60395;52.020;113.548;2024-02-21T16:42:55;4.50;;;2.35;;
72404;SDS011;60395;52.020;113.548;2024-02-21T16:46:01;4.40;;;1.58;;
72404;SDS011;60395;52.020;113.548;2024-02-21T16:49:05;2.85;;;2.00;;
72404;SDS011;60395;52.020;113.548;2024-02-21T16:52:09;8.15;;;2.22;;
72404;SDS011;60395;52.020;113.548;2024-02-21T16:55:13;4.75;;;2.10;;
72404;SDS011;60395;52.020;113.548;2024-02-21T16:58:18;3.15;;;1.70;;
72404;SDS011;60395;52.020;113.548;2024-02-21T17:01:21;4.53;;;2.90;;
72404;SDS011;60395;52.020;113.548;2024-02-21T17:04:25;1.75;;;1.55;;
72404;SDS011;60395;52.020;113.548;2024-02-21T17:07:28;3.58;;;2.10;;
72404;SDS011;60395;52.020;113.548;2024-02-21T17:10:32;4.63;;;2.15;;
72404;SDS011;60395;52.020;113.548;2024-02-21T17:13:35;3.28;;;1.70;;
72404;SDS011;60395;52.020;113.548;2024-02-21T17:16:39;3.38;;;1.65;;
72404;SDS011;60395;52.020;113.548;2024-02-21T17:19:43;5.97;;;3.15;;
72404;SDS011;60395;52.020;113.548;2024-02-21T17:22:47;5.10;;;2.53;;
72404;SDS011;60395;52.020;113.548;2024-02-21T17:25:50;19.00;;;6.75;;
72404;SDS011;60395;52.020;113.548;2024-02-21T17:28:56;7.10;;;2.42;;
72404;SDS011;60395;52.020;113.548;2024-02-21T17:32:00;5.82;;;2.03;;
72404;SDS011;60395;52.020;113.548;2024-02-21T17:35:04;1.98;;;1.05;;
72404;SDS011;60395;52.020;113.548;2024-02-21T17:38:08;2.13;;;1.63;;
72404;SDS011;60395;52.020;113.548;2024-02-21T17:44:15;3.40;;;2.33;;
72404;SDS011;60395;52.020;113.548;2024-02-21T17:47:19;3.22;;;1.10;;
72404;SDS011;60395;52.020;113.548;2024-02-21T17:50:22;4.68;;;2.55;;
72404;SDS011;60395;52.020;113.548;2024-02-21T17:53:25;2.25;;;1.90;;
72404;SDS011;60395;52.020;113.548;2024-02-21T17:59:32;4.65;;;2.10;;
72404;SDS011;60395;52.020;113.548;2024-02-21T18:02:36;4.68;;;2.38;;
72404;SDS011;60395;52.020;113.548;2024-02-21T18:05:39;2.67;;;1.90;;
72404;SDS011;60395;52.020;113.548;2024-02-21T18:08:43;6.50;;;3.05;;
72404;SDS011;60395;52.020;113.548;2024-02-21T18:11:46;2.83;;;1.90;;
72404;SDS011;60395;52.020;113.548;2024-02-21T18:17:53;4.57;;;3.00;;
72404;SDS011;60395;52.020;113.548;2024-02-21T18:20:57;2.28;;;1.58;;
72404;SDS011;60395;52.020;113.548;2024-02-21T18:24:00;2.30;;;1.85;;
72404;SDS011;60395;52.020;113.548;2024-02-21T18:27:04;3.28;;;2.42;;
72404;SDS011;60395;52.020;113.548;2024-02-21T18:30:09;6.38;;;1.70;;
72404;SDS011;60395;52.020;113.548;2024-02-21T18:33:12;8.85;;;1.30;;
72404;SDS011;60395;52.020;113.548;2024-02-21T18:36:16;1.25;;;0.82;;
72404;SDS011;60395;52.020;113.548;2024-02-21T18:39:19;1.17;;;0.57;;
72404;SDS011;60395;52.020;113.548;2024-02-21T18:42:25;10.15;;;2.33;;
72404;SDS011;60395;52.020;113.548;2024-02-21T18:45:28;4.20;;;1.30;;
72404;SDS011;60395;52.020;113.548;2024-02-21T18:48:32;5.20;;;2.10;;
72404;SDS011;60395;52.020;113.548;2024-02-21T18:51:36;11.10;;;1.85;;
72404;SDS011;60395;52.020;113.548;2024-02-21T18:54:40;8.75;;;1.83;;
72404;SDS011;60395;52.020;113.548;2024-02-21T18:57:46;2.80;;;0.35;;
72404;SDS011;60395;52.020;113.548;2024-02-21T19:00:49;4.00;;;1.50;;